Port Dover, Canada
Current Conditions -  °F | °C
As of 10:00 PM on Monday 20 Oct 2014 (Local Time) from CYHM Reporting Station
Rain Showers Rain Showers  
Wind Chill: 52°   Ceiling: 1300
Heat Index: 52°   Visibility: 6mi
Dew Point: 50°   Wind: 3mph
Humidity: 94%   Direction: 230°SW
Pressure: 29.81"   Gusts: NA
Location:  42.78°N, 80.2°W
Report Text: CYHM 210200Z 23003KT 6SM -SHRA BR FEW006 BKN013 OVC020 11/10 A2981 RMK SF1SC5SC2 SLP096
Loading
Personal Weather Stations






























Interactive Weather Map
Tropical Storm Tracking
New forecast layout! Learn more

10-Day Weather Forecast

Advertisements
Track Severe Weather on mobile